sensor_id;sensor_type;location;lat;lon;timestamp;temperature;humidity
24158;DHT22;12316;50.904;4.200;2023-04-01T00:00:52;11.10;99.90
24158;DHT22;12316;50.904;4.200;2023-04-01T00:03:19;11.20;99.90
24158;DHT22;12316;50.904;4.200;2023-04-01T00:05:45;11.20;99.90
24158;DHT22;12316;50.904;4.200;2023-04-01T00:08:11;11.20;99.90
24158;DHT22;12316;50.904;4.200;2023-04-01T00:10:37;11.20;99.90
24158;DHT22;12316;50.904;4.200;2023-04-01T00:13:03;11.30;99.90
24158;DHT22;12316;50.904;4.200;2023-04-01T00:15:28;11.30;99.90
24158;DHT22;12316;50.904;4.200;2023-04-01T00:17:54;11.20;99.90
24158;DHT22;12316;50.904;4.200;2023-04-01T00:20:20;11.30;99.90
24158;DHT22;12316;50.904;4.200;2023-04-01T00:22:46;11.20;99.90
24158;DHT22;12316;50.904;4.200;2023-04-01T00:25:11;11.20;99.90
24158;DHT22;12316;50.904;4.200;2023-04-01T00:27:37;11.30;99.90
24158;DHT22;12316;50.904;4.200;2023-04-01T00:30:03;11.40;99.90
24158;DHT22;12316;50.904;4.200;2023-04-01T00:32:29;11.30;99.90
24158;DHT22;12316;50.904;4.200;2023-04-01T00:34:55;11.20;99.90
24158;DHT22;12316;50.904;4.200;2023-04-01T00:37:21;11.20;99.90
24158;DHT22;12316;50.904;4.200;2023-04-01T00:39:48;11.20;99.90
24158;DHT22;12316;50.904;4.200;2023-04-01T00:42:13;11.30;99.90
24158;DHT22;12316;50.904;4.200;2023-04-01T00:44:40;11.20;99.90
24158;DHT22;12316;50.904;4.200;2023-04-01T00:47:06;11.20;99.90
24158;DHT22;12316;50.904;4.200;2023-04-01T00:49:44;11.20;99.90
24158;DHT22;12316;50.904;4.200;2023-04-01T00:52:14;11.30;99.90
24158;DHT22;12316;50.904;4.200;2023-04-01T00:54:44;11.30;99.90
24158;DHT22;12316;50.904;4.200;2023-04-01T00:57:19;11.30;99.90
24158;DHT22;12316;50.904;4.200;2023-04-01T00:59:49;11.40;99.90
24158;DHT22;12316;50.904;4.200;2023-04-01T01:02:19;11.30;99.90
24158;DHT22;12316;50.904;4.200;2023-04-01T01:04:45;11.30;99.90
24158;DHT22;12316;50.904;4.200;2023-04-01T01:07:27;11.30;99.90
24158;DHT22;12316;50.904;4.200;2023-04-01T01:12:59;11.30;99.90
24158;DHT22;12316;50.904;4.200;2023-04-01T01:18:58;11.20;99.90
24158;DHT22;12316;50.904;4.200;2023-04-01T01:21:49;11.20;99.90
24158;DHT22;12316;50.904;4.200;2023-04-01T01:24:30;11.20;99.90
24158;DHT22;12316;50.904;4.200;2023-04-01T01:27:07;11.20;99.90
24158;DHT22;12316;50.904;4.200;2023-04-01T01:37:50;11.00;99.90
24158;DHT22;12316;50.904;4.200;2023-04-01T01:40:16;11.00;99.90
24158;DHT22;12316;50.904;4.200;2023-04-01T01:42:49;10.80;99.90
24158;DHT22;12316;50.904;4.200;2023-04-01T01:45:19;10.80;99.90
24158;DHT22;12316;50.904;4.200;2023-04-01T01:47:48;10.70;99.90
24158;DHT22;12316;50.904;4.200;2023-04-01T01:50:15;10.70;99.90
24158;DHT22;12316;50.904;4.200;2023-04-01T01:52:42;10.70;99.90
24158;DHT22;12316;50.904;4.200;2023-04-01T01:55:35;10.60;99.90
24158;DHT22;12316;50.904;4.200;2023-04-01T02:00:34;10.50;99.90
24158;DHT22;12316;50.904;4.200;2023-04-01T02:03:00;10.50;99.90
24158;DHT22;12316;50.904;4.200;2023-04-01T02:05:28;10.50;99.90
24158;DHT22;12316;50.904;4.200;2023-04-01T02:08:13;10.50;99.90
24158;DHT22;12316;50.904;4.200;2023-04-01T02:10:43;10.50;99.90
24158;DHT22;12316;50.904;4.200;2023-04-01T02:13:31;10.50;99.90
24158;DHT22;12316;50.904;4.200;2023-04-01T02:16:02;10.50;99.90
24158;DHT22;12316;50.904;4.200;2023-04-01T02:18:30;10.60;99.90
24158;DHT22;12316;50.904;4.200;2023-04-01T02:20:59;10.60;99.90
24158;DHT22;12316;50.904;4.200;2023-04-01T02:23:26;10.50;99.90
24158;DHT22;12316;50.904;4.200;2023-04-01T02:25:53;10.60;99.90
24158;DHT22;12316;50.904;4.200;2023-04-01T02:28:20;10.60;99.90
24158;DHT22;12316;50.904;4.200;2023-04-01T02:30:47;10.60;99.90
24158;DHT22;12316;50.904;4.200;2023-04-01T02:33:16;10.70;99.90
24158;DHT22;12316;50.904;4.200;2023-04-01T02:35:43;10.60;99.90
24158;DHT22;12316;50.904;4.200;2023-04-01T02:38:09;10.60;99.90
24158;DHT22;12316;50.904;4.200;2023-04-01T02:41:04;10.60;99.90
24158;DHT22;12316;50.904;4.200;2023-04-01T02:43:31;10.50;99.90
24158;DHT22;12316;50.904;4.200;2023-04-01T02:45:57;10.60;99.90
24158;DHT22;12316;50.904;4.200;2023-04-01T02:48:22;10.60;99.90
24158;DHT22;12316;50.904;4.200;2023-04-01T02:50:48;10.60;99.90
24158;DHT22;12316;50.904;4.200;2023-04-01T02:53:14;10.60;99.90
24158;DHT22;12316;50.904;4.200;2023-04-01T02:55:39;10.70;99.90
24158;DHT22;12316;50.904;4.200;2023-04-01T02:58:05;10.70;99.90
24158;DHT22;12316;50.904;4.200;2023-04-01T03:00:31;10.60;99.90
24158;DHT22;12316;50.904;4.200;2023-04-01T03:02:57;10.70;99.90
24158;DHT22;12316;50.904;4.200;2023-04-01T03:05:23;10.80;99.90
24158;DHT22;12316;50.904;4.200;2023-04-01T03:07:49;10.60;99.90
24158;DHT22;12316;50.904;4.200;2023-04-01T03:10:14;10.70;99.90
24158;DHT22;12316;50.904;4.200;2023-04-01T03:12:40;10.70;99.90
24158;DHT22;12316;50.904;4.200;2023-04-01T03:15:06;10.60;99.90
24158;DHT22;12316;50.904;4.200;2023-04-01T03:17:33;10.60;99.90
24158;DHT22;12316;50.904;4.200;2023-04-01T03:19:59;10.60;99.90
24158;DHT22;12316;50.904;4.200;2023-04-01T03:22:24;10.60;99.90
24158;DHT22;12316;50.904;4.200;2023-04-01T03:24:50;10.50;99.90
24158;DHT22;12316;50.904;4.200;2023-04-01T03:27:16;10.60;99.90
24158;DHT22;12316;50.904;4.200;2023-04-01T03:29:41;10.60;99.90
24158;DHT22;12316;50.904;4.200;2023-04-01T03:32:07;10.60;99.90
24158;DHT22;12316;50.904;4.200;2023-04-01T03:34:33;10.70;99.90
24158;DHT22;12316;50.904;4.200;2023-04-01T03:36:58;10.60;99.90
24158;DHT22;12316;50.904;4.200;2023-04-01T03:39:24;10.80;99.90
24158;DHT22;12316;50.904;4.200;2023-04-01T03:41:50;10.80;99.90
24158;DHT22;12316;50.904;4.200;2023-04-01T03:44:16;10.80;99.90
24158;DHT22;12316;50.904;4.200;2023-04-01T03:46:42;10.80;99.90
24158;DHT22;12316;50.904;4.200;2023-04-01T03:49:09;10.70;99.90
24158;DHT22;12316;50.904;4.200;2023-04-01T03:51:38;10.70;99.90
24158;DHT22;12316;50.904;4.200;2023-04-01T03:54:04;10.80;99.90
24158;DHT22;12316;50.904;4.200;2023-04-01T03:56:30;10.60;99.90
24158;DHT22;12316;50.904;4.200;2023-04-01T03:58:55;10.70;99.90
24158;DHT22;12316;50.904;4.200;2023-04-01T04:01:22;10.60;99.90
24158;DHT22;12316;50.904;4.200;2023-04-01T04:03:48;10.60;99.90
24158;DHT22;12316;50.904;4.200;2023-04-01T04:06:15;10.70;99.90
24158;DHT22;12316;50.904;4.200;2023-04-01T04:08:41;10.70;99.90
24158;DHT22;12316;50.904;4.200;2023-04-01T04:11:07;10.70;99.90
24158;DHT22;12316;50.904;4.200;2023-04-01T04:13:33;10.70;99.90
24158;DHT22;12316;50.904;4.200;2023-04-01T04:15:58;10.70;99.90
24158;DHT22;12316;50.904;4.200;2023-04-01T04:18:24;10.70;99.90
24158;DHT22;12316;50.904;4.200;2023-04-01T04:20:50;10.60;99.90
24158;DHT22;12316;50.904;4.200;2023-04-01T04:23:17;10.60;99.90
24158;DHT22;12316;50.904;4.200;2023-04-01T04:26:05;10.60;99.90
24158;DHT22;12316;50.904;4.200;2023-04-01T04:28:32;10.60;99.90
24158;DHT22;12316;50.904;4.200;2023-04-01T04:30:57;10.60;99.90
24158;DHT22;12316;50.904;4.200;2023-04-01T04:33:24;10.50;99.90
24158;DHT22;12316;50.904;4.200;2023-04-01T04:35:50;10.50;99.90
24158;DHT22;12316;50.904;4.200;2023-04-01T04:38:15;10.60;99.90
24158;DHT22;12316;50.904;4.200;2023-04-01T04:40:42;10.60;99.90
24158;DHT22;12316;50.904;4.200;2023-04-01T04:43:11;10.50;99.90
24158;DHT22;12316;50.904;4.200;2023-04-01T04:45:37;10.60;99.90
24158;DHT22;12316;50.904;4.200;2023-04-01T04:48:03;10.60;99.90
24158;DHT22;12316;50.904;4.200;2023-04-01T04:50:29;10.60;99.90
24158;DHT22;12316;50.904;4.200;2023-04-01T04:52:54;10.60;99.90
24158;DHT22;12316;50.904;4.200;2023-04-01T04:55:21;10.60;99.90
24158;DHT22;12316;50.904;4.200;2023-04-01T04:57:46;10.60;99.90
24158;DHT22;12316;50.904;4.200;2023-04-01T05:00:12;10.60;99.90
24158;DHT22;12316;50.904;4.200;2023-04-01T05:02:38;10.60;99.90
24158;DHT22;12316;50.904;4.200;2023-04-01T05:05:04;10.60;99.90
24158;DHT22;12316;50.904;4.200;2023-04-01T05:07:30;10.60;99.90
24158;DHT22;12316;50.904;4.200;2023-04-01T05:09:55;10.70;99.90
24158;DHT22;12316;50.904;4.200;2023-04-01T05:12:21;10.70;99.90
24158;DHT22;12316;50.904;4.200;2023-04-01T05:14:46;10.60;99.90
24158;DHT22;12316;50.904;4.200;2023-04-01T05:17:12;10.60;99.90
24158;DHT22;12316;50.904;4.200;2023-04-01T05:19:38;10.50;99.90
24158;DHT22;12316;50.904;4.200;2023-04-01T05:22:05;10.50;99.90
24158;DHT22;12316;50.904;4.200;2023-04-01T05:24:32;10.40;99.90
24158;DHT22;12316;50.904;4.200;2023-04-01T05:26:58;10.50;99.90
24158;DHT22;12316;50.904;4.200;2023-04-01T05:29:24;10.50;99.90
24158;DHT22;12316;50.904;4.200;2023-04-01T05:31:50;10.50;99.90
24158;DHT22;12316;50.904;4.200;2023-04-01T05:34:16;10.50;99.90
24158;DHT22;12316;50.904;4.200;2023-04-01T05:36:42;10.60;99.90
24158;DHT22;12316;50.904;4.200;2023-04-01T05:39:08;10.50;99.90
24158;DHT22;12316;50.904;4.200;2023-04-01T05:41:37;10.50;99.90
24158;DHT22;12316;50.904;4.200;2023-04-01T05:44:03;10.40;99.90
24158;DHT22;12316;50.904;4.200;2023-04-01T05:46:29;10.40;99.90
24158;DHT22;12316;50.904;4.200;2023-04-01T05:48:55;10.70;99.90
24158;DHT22;12316;50.904;4.200;2023-04-01T05:51:21;10.50;99.90
24158;DHT22;12316;50.904;4.200;2023-04-01T05:53:46;10.50;99.90
24158;DHT22;12316;50.904;4.200;2023-04-01T05:56:12;10.70;99.90
24158;DHT22;12316;50.904;4.200;2023-04-01T05:58:38;10.50;99.90
24158;DHT22;12316;50.904;4.200;2023-04-01T06:01:06;10.50;99.90
24158;DHT22;12316;50.904;4.200;2023-04-01T06:03:32;10.50;99.90
24158;DHT22;12316;50.904;4.200;2023-04-01T06:05:59;10.50;99.90
24158;DHT22;12316;50.904;4.200;2023-04-01T06:08:27;10.50;99.90
24158;DHT22;12316;50.904;4.200;2023-04-01T06:11:12;10.40;99.90
24158;DHT22;12316;50.904;4.200;2023-04-01T06:16:22;10.50;99.90
24158;DHT22;12316;50.904;4.200;2023-04-01T06:25:07;10.60;99.90
24158;DHT22;12316;50.904;4.200;2023-04-01T06:30:40;10.50;99.90
24158;DHT22;12316;50.904;4.200;2023-04-01T06:33:55;10.40;99.90
24158;DHT22;12316;50.904;4.200;2023-04-01T06:46:47;10.40;99.90
24158;DHT22;12316;50.904;4.200;2023-04-01T06:49:38;10.50;99.90
24158;DHT22;12316;50.904;4.200;2023-04-01T06:55:05;10.30;99.90
24158;DHT22;12316;50.904;4.200;2023-04-01T06:57:42;10.40;99.90
24158;DHT22;12316;50.904;4.200;2023-04-01T07:00:16;10.40;99.90
24158;DHT22;12316;50.904;4.200;2023-04-01T07:02:52;10.30;99.90
24158;DHT22;12316;50.904;4.200;2023-04-01T07:05:21;10.40;99.90
24158;DHT22;12316;50.904;4.200;2023-04-01T07:07:51;10.40;99.90
24158;DHT22;12316;50.904;4.200;2023-04-01T07:14:10;10.40;99.90
24158;DHT22;12316;50.904;4.200;2023-04-01T07:16:41;10.40;99.90
24158;DHT22;12316;50.904;4.200;2023-04-01T07:19:15;10.50;99.90
24158;DHT22;12316;50.904;4.200;2023-04-01T07:21:48;10.40;99.90
24158;DHT22;12316;50.904;4.200;2023-04-01T07:24:37;10.40;99.90
24158;DHT22;12316;50.904;4.200;2023-04-01T07:27:10;10.40;99.90
24158;DHT22;12316;50.904;4.200;2023-04-01T07:29:36;10.30;99.90
24158;DHT22;12316;50.904;4.200;2023-04-01T07:40:32;10.40;99.90
24158;DHT22;12316;50.904;4.200;2023-04-01T07:45:49;10.50;99.90
24158;DHT22;12316;50.904;4.200;2023-04-01T07:53:43;10.30;99.90
24158;DHT22;12316;50.904;4.200;2023-04-01T07:56:18;10.30;99.90
24158;DHT22;12316;50.904;4.200;2023-04-01T07:59:07;10.80;99.90
24158;DHT22;12316;50.904;4.200;2023-04-01T08:01:57;10.40;99.90
24158;DHT22;12316;50.904;4.200;2023-04-01T08:04:34;10.60;99.90
24158;DHT22;12316;50.904;4.200;2023-04-01T08:07:20;10.60;99.90
24158;DHT22;12316;50.904;4.200;2023-04-01T08:10:06;10.80;99.90
24158;DHT22;12316;50.904;4.200;2023-04-01T08:15:47;10.90;99.90
24158;DHT22;12316;50.904;4.200;2023-04-01T08:18:33;10.80;99.90
24158;DHT22;12316;50.904;4.200;2023-04-01T08:21:03;10.70;99.90
24158;DHT22;12316;50.904;4.200;2023-04-01T08:23:41;10.70;99.90
24158;DHT22;12316;50.904;4.200;2023-04-01T08:28:54;10.90;99.90
24158;DHT22;12316;50.904;4.200;2023-04-01T08:31:32;10.90;99.90
24158;DHT22;12316;50.904;4.200;2023-04-01T08:34:03;10.90;99.90
24158;DHT22;12316;50.904;4.200;2023-04-01T08:36:35;10.90;99.90
24158;DHT22;12316;50.904;4.200;2023-04-01T08:39:08;11.00;99.90
24158;DHT22;12316;50.904;4.200;2023-04-01T08:50:40;11.00;99.90
24158;DHT22;12316;50.904;4.200;2023-04-01T08:56:18;11.00;99.90
24158;DHT22;12316;50.904;4.200;2023-04-01T09:08:01;10.90;99.90
24158;DHT22;12316;50.904;4.200;2023-04-01T09:27:57;11.10;99.90
24158;DHT22;12316;50.904;4.200;2023-04-01T09:30:32;11.00;99.90
24158;DHT22;12316;50.904;4.200;2023-04-01T09:33:22;10.90;99.90
24158;DHT22;12316;50.904;4.200;2023-04-01T09:41:28;10.90;99.90
24158;DHT22;12316;50.904;4.200;2023-04-01T09:52:59;10.80;99.90
24158;DHT22;12316;50.904;4.200;2023-04-01T09:58:07;10.80;99.90
24158;DHT22;12316;50.904;4.200;2023-04-01T10:00:49;11.70;99.90
24158;DHT22;12316;50.904;4.200;2023-04-01T10:14:45;11.20;99.90
24158;DHT22;12316;50.904;4.200;2023-04-01T10:20:29;11.30;99.90
24158;DHT22;12316;50.904;4.200;2023-04-01T10:39:27;11.30;99.90
24158;DHT22;12316;50.904;4.200;2023-04-01T10:42:50;11.40;99.90
24158;DHT22;12316;50.904;4.200;2023-04-01T10:50:27;11.60;99.90
24158;DHT22;12316;50.904;4.200;2023-04-01T10:53:14;11.50;99.90
24158;DHT22;12316;50.904;4.200;2023-04-01T10:55:47;11.50;99.90
24158;DHT22;12316;50.904;4.200;2023-04-01T10:58:53;11.50;99.90
24158;DHT22;12316;50.904;4.200;2023-04-01T11:21:18;11.30;99.90
24158;DHT22;12316;50.904;4.200;2023-04-01T11:23:51;11.20;99.90
24158;DHT22;12316;50.904;4.200;2023-04-01T11:26:36;11.10;99.90
24158;DHT22;12316;50.904;4.200;2023-04-01T11:29:37;11.10;99.90
24158;DHT22;12316;50.904;4.200;2023-04-01T11:32:07;11.30;99.90
24158;DHT22;12316;50.904;4.200;2023-04-01T11:37:50;11.40;99.90
24158;DHT22;12316;50.904;4.200;2023-04-01T11:40:51;11.40;99.90
24158;DHT22;12316;50.904;4.200;2023-04-01T11:47:00;11.50;99.90
24158;DHT22;12316;50.904;4.200;2023-04-01T11:49:41;11.40;99.90
24158;DHT22;12316;50.904;4.200;2023-04-01T11:52:44;11.20;99.90
24158;DHT22;12316;50.904;4.200;2023-04-01T11:55:38;11.40;99.90
24158;DHT22;12316;50.904;4.200;2023-04-01T12:01:35;11.60;99.90
24158;DHT22;12316;50.904;4.200;2023-04-01T12:04:38;11.70;99.90
24158;DHT22;12316;50.904;4.200;2023-04-01T12:10:21;11.60;99.90
24158;DHT22;12316;50.904;4.200;2023-04-01T12:13:08;11.80;99.90
24158;DHT22;12316;50.904;4.200;2023-04-01T12:16:02;11.50;99.90
24158;DHT22;12316;50.904;4.200;2023-04-01T12:18:38;11.50;99.90
24158;DHT22;12316;50.904;4.200;2023-04-01T12:32:15;11.20;99.90
24158;DHT22;12316;50.904;4.200;2023-04-01T12:34:53;11.20;99.90
24158;DHT22;12316;50.904;4.200;2023-04-01T12:43:17;11.30;99.90
24158;DHT22;12316;50.904;4.200;2023-04-01T13:12:00;11.20;99.90
24158;DHT22;12316;50.904;4.200;2023-04-01T13:22:22;11.10;99.90
24158;DHT22;12316;50.904;4.200;2023-04-01T13:27:37;11.10;99.90
24158;DHT22;12316;50.904;4.200;2023-04-01T13:30:24;10.90;99.90
24158;DHT22;12316;50.904;4.200;2023-04-01T13:35:47;11.20;99.90
24158;DHT22;12316;50.904;4.200;2023-04-01T14:05:15;11.10;99.90
24158;DHT22;12316;50.904;4.200;2023-04-01T14:13:37;11.40;99.90
24158;DHT22;12316;50.904;4.200;2023-04-01T14:21:43;11.40;99.90
24158;DHT22;12316;50.904;4.200;2023-04-01T14:38:28;11.20;99.90
24158;DHT22;12316;50.904;4.200;2023-04-01T14:49:52;11.20;99.90
24158;DHT22;12316;50.904;4.200;2023-04-01T14:52:28;11.00;99.90
24158;DHT22;12316;50.904;4.200;2023-04-01T14:54:57;11.00;99.90
24158;DHT22;12316;50.904;4.200;2023-04-01T15:02:30;10.90;99.90
24158;DHT22;12316;50.904;4.200;2023-04-01T15:07:59;11.00;99.90
24158;DHT22;12316;50.904;4.200;2023-04-01T15:10:48;11.00;99.90
24158;DHT22;12316;50.904;4.200;2023-04-01T15:29:54;10.90;99.90
24158;DHT22;12316;50.904;4.200;2023-04-01T15:32:38;11.00;99.90
24158;DHT22;12316;50.904;4.200;2023-04-01T15:38:06;10.70;99.90
24158;DHT22;12316;50.904;4.200;2023-04-01T15:43:49;10.80;99.90
24158;DHT22;12316;50.904;4.200;2023-04-01T15:49:35;10.80;99.90
24158;DHT22;12316;50.904;4.200;2023-04-01T16:00:23;10.80;99.90
24158;DHT22;12316;50.904;4.200;2023-04-01T16:03:08;10.90;99.90
24158;DHT22;12316;50.904;4.200;2023-04-01T16:08:55;11.00;99.90
24158;DHT22;12316;50.904;4.200;2023-04-01T16:14:01;10.80;99.90
24158;DHT22;12316;50.904;4.200;2023-04-01T16:21:53;11.00;99.90
24158;DHT22;12316;50.904;4.200;2023-04-01T16:26:56;10.90;99.90
24158;DHT22;12316;50.904;4.200;2023-04-01T16:29:56;10.90;99.90
24158;DHT22;12316;50.904;4.200;2023-04-01T16:32:44;10.90;99.90
24158;DHT22;12316;50.904;4.200;2023-04-01T16:35:33;11.00;99.90
24158;DHT22;12316;50.904;4.200;2023-04-01T16:43:27;10.80;99.90
24158;DHT22;12316;50.904;4.200;2023-04-01T16:46:14;10.70;99.90
24158;DHT22;12316;50.904;4.200;2023-04-01T16:49:17;10.80;99.90
24158;DHT22;12316;50.904;4.200;2023-04-01T16:57:26;10.80;99.90
24158;DHT22;12316;50.904;4.200;2023-04-01T17:02:25;10.50;99.90
24158;DHT22;12316;50.904;4.200;2023-04-01T17:07:49;10.60;99.90
24158;DHT22;12316;50.904;4.200;2023-04-01T17:10:45;10.60;99.90
24158;DHT22;12316;50.904;4.200;2023-04-01T17:29:23;10.50;99.90
24158;DHT22;12316;50.904;4.200;2023-04-01T17:42:22;10.50;99.90
24158;DHT22;12316;50.904;4.200;2023-04-01T17:56:16;10.30;99.90
24158;DHT22;12316;50.904;4.200;2023-04-01T18:01:49;10.30;99.90
24158;DHT22;12316;50.904;4.200;2023-04-01T18:04:41;10.20;99.90
24158;DHT22;12316;50.904;4.200;2023-04-01T18:12:21;10.10;99.90
24158;DHT22;12316;50.904;4.200;2023-04-01T18:15:11;10.00;99.90
24158;DHT22;12316;50.904;4.200;2023-04-01T18:23:55;10.10;99.90
24158;DHT22;12316;50.904;4.200;2023-04-01T18:26:32;10.00;99.90
24158;DHT22;12316;50.904;4.200;2023-04-01T18:29:13;10.20;99.90
24158;DHT22;12316;50.904;4.200;2023-04-01T18:31:54;10.20;99.90
24158;DHT22;12316;50.904;4.200;2023-04-01T18:40:00;10.20;99.90
24158;DHT22;12316;50.904;4.200;2023-04-01T18:48:25;10.10;99.90
24158;DHT22;12316;50.904;4.200;2023-04-01T18:50:57;9.90;99.90
24158;DHT22;12316;50.904;4.200;2023-04-01T18:56:29;9.90;99.90
24158;DHT22;12316;50.904;4.200;2023-04-01T19:06:56;9.80;99.90
24158;DHT22;12316;50.904;4.200;2023-04-01T19:09:46;9.80;99.90
24158;DHT22;12316;50.904;4.200;2023-04-01T19:15:48;9.80;99.90
24158;DHT22;12316;50.904;4.200;2023-04-01T19:20:52;9.60;99.90
24158;DHT22;12316;50.904;4.200;2023-04-01T19:26:20;9.60;99.90
24158;DHT22;12316;50.904;4.200;2023-04-01T19:29:02;9.60;99.90
24158;DHT22;12316;50.904;4.200;2023-04-01T19:31:50;9.60;99.90
24158;DHT22;12316;50.904;4.200;2023-04-01T19:37:09;9.60;99.90
24158;DHT22;12316;50.904;4.200;2023-04-01T19:42:43;9.60;99.90
24158;DHT22;12316;50.904;4.200;2023-04-01T19:48:28;9.70;99.90
24158;DHT22;12316;50.904;4.200;2023-04-01T19:56:22;9.60;99.90
24158;DHT22;12316;50.904;4.200;2023-04-01T19:58:55;9.60;99.90
24158;DHT22;12316;50.904;4.200;2023-04-01T20:03:51;9.70;99.90
24158;DHT22;12316;50.904;4.200;2023-04-01T20:06:42;9.70;99.90
24158;DHT22;12316;50.904;4.200;2023-04-01T20:14:38;9.70;99.90
24158;DHT22;12316;50.904;4.200;2023-04-01T20:17:16;9.70;99.90
24158;DHT22;12316;50.904;4.200;2023-04-01T20:19:53;9.70;99.90
24158;DHT22;12316;50.904;4.200;2023-04-01T20:27:49;9.80;99.90
24158;DHT22;12316;50.904;4.200;2023-04-01T20:41:03;9.80;99.90
24158;DHT22;12316;50.904;4.200;2023-04-01T20:51:37;9.80;99.90
24158;DHT22;12316;50.904;4.200;2023-04-01T20:57:32;9.80;99.90
24158;DHT22;12316;50.904;4.200;2023-04-01T20:59:52;9.80;99.90
24158;DHT22;12316;50.904;4.200;2023-04-01T21:02:44;9.80;99.90
24158;DHT22;12316;50.904;4.200;2023-04-01T21:11:11;9.80;99.90
24158;DHT22;12316;50.904;4.200;2023-04-01T21:16:39;9.80;99.90
24158;DHT22;12316;50.904;4.200;2023-04-01T21:39:13;9.90;99.90
24158;DHT22;12316;50.904;4.200;2023-04-01T21:42:10;9.80;99.90
24158;DHT22;12316;50.904;4.200;2023-04-01T22:11:38;10.10;99.90
24158;DHT22;12316;50.904;4.200;2023-04-01T22:14:20;10.10;99.90
24158;DHT22;12316;50.904;4.200;2023-04-01T22:28:00;10.10;99.90
24158;DHT22;12316;50.904;4.200;2023-04-01T22:30:41;10.40;99.90
24158;DHT22;12316;50.904;4.200;2023-04-01T22:33:29;10.20;99.90
24158;DHT22;12316;50.904;4.200;2023-04-01T22:36:19;10.30;99.90
24158;DHT22;12316;50.904;4.200;2023-04-01T22:39:05;10.30;99.90
24158;DHT22;12316;50.904;4.200;2023-04-01T22:42:12;10.30;99.90
24158;DHT22;12316;50.904;4.200;2023-04-01T22:44:40;10.40;99.90
24158;DHT22;12316;50.904;4.200;2023-04-01T22:47:18;10.40;99.90
24158;DHT22;12316;50.904;4.200;2023-04-01T22:50:16;10.40;99.90
24158;DHT22;12316;50.904;4.200;2023-04-01T22:52:47;10.30;99.90
24158;DHT22;12316;50.904;4.200;2023-04-01T22:55:27;10.30;99.90
24158;DHT22;12316;50.904;4.200;2023-04-01T22:58:09;10.20;99.90
24158;DHT22;12316;50.904;4.200;2023-04-01T23:00:43;10.20;99.90
24158;DHT22;12316;50.904;4.200;2023-04-01T23:03:32;10.10;99.90
24158;DHT22;12316;50.904;4.200;2023-04-01T23:06:00;10.10;99.90
24158;DHT22;12316;50.904;4.200;2023-04-01T23:08:41;10.10;99.90
24158;DHT22;12316;50.904;4.200;2023-04-01T23:11:10;10.00;99.90
24158;DHT22;12316;50.904;4.200;2023-04-01T23:13:43;10.00;99.90
24158;DHT22;12316;50.904;4.200;2023-04-01T23:16:10;10.10;99.90
24158;DHT22;12316;50.904;4.200;2023-04-01T23:18:57;10.00;99.90
24158;DHT22;12316;50.904;4.200;2023-04-01T23:21:41;10.00;99.90
24158;DHT22;12316;50.904;4.200;2023-04-01T23:24:34;9.90;99.90
24158;DHT22;12316;50.904;4.200;2023-04-01T23:27:27;9.90;99.90
24158;DHT22;12316;50.904;4.200;2023-04-01T23:29:54;10.00;99.90
24158;DHT22;12316;50.904;4.200;2023-04-01T23:32:23;10.00;99.90
24158;DHT22;12316;50.904;4.200;2023-04-01T23:34:54;10.10;99.90
24158;DHT22;12316;50.904;4.200;2023-04-01T23:37:21;10.10;99.90
24158;DHT22;12316;50.904;4.200;2023-04-01T23:39:50;10.00;99.90
24158;DHT22;12316;50.904;4.200;2023-04-01T23:44:53;10.10;99.90
24158;DHT22;12316;50.904;4.200;2023-04-01T23:47:36;10.10;99.90
24158;DHT22;12316;50.904;4.200;2023-04-01T23:50:23;9.90;99.90
24158;DHT22;12316;50.904;4.200;2023-04-01T23:53:00;10.00;99.90
24158;DHT22;12316;50.904;4.200;2023-04-01T23:55:31;10.00;99.90
24158;DHT22;12316;50.904;4.200;2023-04-01T23:58:27;9.90;99.90
